Time;durP1;ratioP1;P1;durP2;ratioP2;P2;SDS_P1;SDS_P2;PMS_P1;PMS_P2;Temp;Humidity;BMP_temperature;BMP_pressure;BME280_temperature;BME280_humidity;BME280_pressure;Samples;Min_cycle;Max_cycle;Signal;HPM_P1;HPM_P2
2022/03/28 00:02:18;;;;;;;18.77;8.53;;;;;;;0.51;39.05;101428.44;1780508;80;21107;-52
2022/03/28 00:04:45;;;;;;;22.67;8.28;;;;;;;0.46;39.08;101421.66;1785809;80;21130;-52
2022/03/28 00:07:13;;;;;;;16.52;8.80;;;;;;;0.45;39.15;101415.61;1785768;80;21108;-52
2022/03/28 00:09:39;;;;;;;17.62;8.53;;;;;;;0.43;39.25;101427.75;1779104;78;21134;-52
2022/03/28 00:12:10;;;;;;;13.83;7.37;;;;;;;0.41;39.45;101428.23;1772761;80;21112;-53
2022/03/28 00:14:37;;;;;;;16.27;8.03;;;;;;;0.40;39.41;101423.92;1774923;78;21059;-53
2022/03/28 00:17:05;;;;;;;12.93;7.10;;;;;;;0.38;39.42;101433.47;1773284;80;21320;-51
2022/03/28 00:19:33;;;;;;;10.78;6.35;;;;;;;0.34;39.59;101422.77;1779994;80;21525;-52
2022/03/28 00:22:00;;;;;;;11.05;6.37;;;;;;;0.31;39.76;101426.27;1781240;80;21117;-52
2022/03/28 00:24:27;;;;;;;12.33;6.17;;;;;;;0.29;39.81;101418.14;1782711;80;21060;-51
2022/03/28 00:26:55;;;;;;;14.93;6.58;;;;;;;0.29;39.97;101427.20;1782919;79;21034;-51
2022/03/28 00:31:24;;;;;;;17.57;5.65;;;;;;;0.26;39.88;101419.48;1797870;78;22592;-52
2022/03/28 00:33:51;;;;;;;10.15;5.12;;;;;;;0.20;39.96;101418.31;1761478;80;22470;-52
2022/03/28 00:36:18;;;;;;;13.45;5.45;;;;;;;0.19;40.00;101421.34;1760075;80;21271;-53
2022/03/28 00:38:44;;;;;;;10.80;5.35;;;;;;;0.17;40.04;101423.97;1710904;81;21544;-53
2022/03/28 00:41:12;;;;;;;9.58;4.33;;;;;;;0.16;40.17;101422.25;1715904;83;21030;-52
2022/03/28 00:43:57;;;;;;;8.35;3.87;;;;;;;0.14;40.20;101412.38;1717054;81;21097;-53
2022/03/28 00:46:23;;;;;;;9.10;3.77;;;;;;;0.14;39.97;101414.96;1727480;81;21609;-52
2022/03/28 00:48:52;;;;;;;12.10;4.55;;;;;;;0.15;40.21;101419.27;1733392;81;20996;-52
2022/03/28 00:51:20;;;;;;;8.23;3.37;;;;;;;0.14;40.24;101414.96;1729365;81;20998;-53
2022/03/28 00:53:47;;;;;;;8.65;4.35;;;;;;;0.14;40.36;101420.59;1730449;81;21054;-53
2022/03/28 00:56:14;;;;;;;8.10;2.92;;;;;;;0.12;40.42;101408.12;1726661;81;21070;-53
2022/03/28 00:58:41;;;;;;;9.00;3.05;;;;;;;0.13;40.52;101419.72;1728152;82;21074;-53
2022/03/28 01:01:09;;;;;;;7.17;3.05;;;;;;;0.10;40.49;101409.87;1716906;82;21211;-52
2022/03/28 01:03:37;;;;;;;7.47;3.33;;;;;;;0.10;40.73;101412.04;1718209;82;21042;-52
2022/03/28 01:06:04;;;;;;;7.45;2.83;;;;;;;0.11;40.73;101420.64;1710554;82;21565;-54
2022/03/28 01:08:31;;;;;;;5.45;2.25;;;;;;;0.10;40.82;101408.16;1705084;82;21109;-53
2022/03/28 01:11:00;;;;;;;8.68;2.62;;;;;;;0.07;40.92;101411.22;1715094;82;21081;-52
2022/03/28 01:13:27;;;;;;;7.53;2.45;;;;;;;0.06;40.96;101410.83;1714488;82;21216;-52
2022/03/28 01:15:54;;;;;;;7.65;2.60;;;;;;;0.07;40.96;101412.09;1718771;82;21121;-52
2022/03/28 01:18:22;;;;;;;7.25;2.40;;;;;;;0.07;40.88;101404.75;1711376;82;21499;-53
2022/03/28 01:20:48;;;;;;;5.40;2.00;;;;;;;0.08;40.87;101403.88;1709310;82;21081;-53
2022/03/28 01:23:15;;;;;;;6.20;2.30;;;;;;;0.07;40.83;101397.86;1720419;82;21564;-53
2022/03/28 01:25:44;;;;;;;5.72;2.02;;;;;;;0.07;40.83;101397.86;1712770;82;21156;-53
2022/03/28 01:28:11;;;;;;;9.73;2.60;;;;;;;0.09;41.04;101401.27;1721210;82;21120;-53
2022/03/28 01:30:38;;;;;;;7.85;1.95;;;;;;;0.09;40.93;101399.97;1712219;82;21019;-52
2022/03/28 01:33:05;;;;;;;7.22;2.92;;;;;;;0.09;40.93;101398.68;1706394;83;21091;-53
2022/03/28 01:35:35;;;;;;;6.37;2.25;;;;;;;0.08;40.95;101394.38;1729603;82;21125;-52
2022/03/28 01:38:05;;;;;;;8.90;2.80;;;;;;;0.07;40.79;101401.75;1760641;80;21114;-54
2022/03/28 01:40:33;;;;;;;13.53;2.47;;;;;;;0.06;40.85;101405.66;1753967;80;21697;-53
2022/03/28 01:43:00;;;;;;;11.25;2.70;;;;;;;0.05;40.94;101397.05;1757163;80;21596;-54
2022/03/28 01:45:27;;;;;;;9.85;2.42;;;;;;;0.08;40.86;101394.83;1763686;80;21104;-52
2022/03/28 01:47:53;;;;;;;4.90;2.12;;;;;;;0.06;40.87;101394.85;1758786;80;21134;-52
2022/03/28 01:50:20;;;;;;;7.58;2.70;;;;;;;0.08;40.83;101391.78;1758988;80;21221;-51
2022/03/28 01:52:47;;;;;;;6.87;2.20;;;;;;;0.06;40.65;101394.85;1752651;80;21098;-52
2022/03/28 01:55:14;;;;;;;8.28;2.00;;;;;;;0.06;40.69;101395.30;1763436;80;21045;-53
2022/03/28 01:57:42;;;;;;;4.12;1.52;;;;;;;0.05;40.67;101397.05;1757715;80;21544;-53
2022/03/28 02:00:16;;;;;;;6.35;2.45;;;;;;;0.06;40.59;101388.38;1752794;80;21118;-52
2022/03/28 02:02:43;;;;;;;12.23;2.15;;;;;;;0.09;40.70;101390.07;1764421;80;21195;-53
2022/03/28 02:05:11;;;;;;;8.80;2.10;;;;;;;0.07;40.59;101379.75;1760861;80;21034;-52
2022/03/28 02:07:42;;;;;;;7.62;2.47;;;;;;;0.07;40.46;101375.86;1759190;80;21082;-53
2022/03/28 02:10:13;;;;;;;7.97;2.30;;;;;;;0.07;40.51;101363.34;1757376;80;21105;-53
2022/03/28 02:12:41;;;;;;;12.23;2.42;;;;;;;0.07;40.42;101362.92;1754761;80;22294;-52
2022/03/28 02:15:10;;;;;;;6.70;2.35;;;;;;;0.07;40.29;101362.92;1761012;80;21459;-53
2022/03/28 02:17:39;;;;;;;6.75;2.65;;;;;;;0.09;40.32;101365.03;1766361;80;21050;-52
2022/03/28 02:20:08;;;;;;;10.30;3.70;;;;;;;0.08;40.33;101367.20;1778683;80;21573;-54
2022/03/28 02:22:35;;;;;;;8.03;2.55;;;;;;;0.07;40.01;101364.22;1760635;80;21731;-53
2022/03/28 02:25:05;;;;;;;8.23;3.50;;;;;;;0.08;40.21;101357.30;1754692;80;21050;-53
2022/03/28 02:27:32;;;;;;;10.20;3.12;;;;;;;0.06;40.22;101353.45;1755815;80;21115;-52
2022/03/28 02:30:00;;;;;;;7.70;2.62;;;;;;;0.05;40.21;101352.18;1755106;80;21103;-53
2022/03/28 02:32:27;;;;;;;10.72;2.92;;;;;;;0.05;40.20;101356.06;1751807;80;21114;-53
2022/03/28 02:34:53;;;;;;;9.03;3.17;;;;;;;0.04;40.10;101356.97;1750420;80;22306;-52
2022/03/28 02:37:20;;;;;;;6.67;2.60;;;;;;;0.02;40.19;101364.76;1752874;80;21118;-53
2022/03/28 02:39:48;;;;;;;8.25;2.60;;;;;;;0.00;40.26;101357.48;1755976;80;21185;-53
2022/03/28 02:42:15;;;;;;;6.42;2.40;;;;;;;0.01;40.20;101355.28;1694608;83;21075;-53
2022/03/28 02:44:43;;;;;;;15.25;3.35;;;;;;;0.02;40.23;101360.00;1692099;82;21088;-54
2022/03/28 02:47:09;;;;;;;6.12;2.25;;;;;;;0.01;40.20;101360.91;1704937;82;21058;-53
2022/03/28 02:49:37;;;;;;;7.12;2.58;;;;;;;-0.01;40.22;101360.94;1707603;83;21101;-52
2022/03/28 02:52:06;;;;;;;7.55;2.75;;;;;;;-0.02;40.14;101361.80;1714192;83;21106;-53
2022/03/28 02:54:33;;;;;;;10.23;3.25;;;;;;;-0.03;40.32;101352.36;1718470;83;21137;-53
2022/03/28 02:57:00;;;;;;;7.67;3.25;;;;;;;-0.03;40.28;101354.95;1704524;83;21091;-52
2022/03/28 02:59:26;;;;;;;9.28;2.87;;;;;;;-0.03;40.56;101353.20;1710398;83;21028;-53
2022/03/28 03:01:54;;;;;;;13.38;3.10;;;;;;;0.02;40.40;101344.05;1705967;83;21601;-53
2022/03/28 03:04:22;;;;;;;8.13;3.40;;;;;;;0.05;40.07;101334.94;1701105;83;22792;-54
2022/03/28 03:06:49;;;;;;;9.73;2.77;;;;;;;0.08;40.02;101348.23;1698850;83;21098;-53
2022/03/28 03:09:17;;;;;;;10.88;2.67;;;;;;;0.09;40.12;101340.45;1696897;83;21026;-52
2022/03/28 03:11:44;;;;;;;6.62;3.00;;;;;;;0.12;40.14;101350.73;1704264;83;21475;-53
2022/03/28 03:14:12;;;;;;;11.28;3.58;;;;;;;0.13;40.13;101351.58;1752663;80;21052;-52
2022/03/28 03:16:43;;;;;;;11.60;3.47;;;;;;;0.14;39.92;101355.44;1753965;80;21140;-53
2022/03/28 03:19:11;;;;;;;10.38;3.30;;;;;;;0.17;39.83;101340.30;1752132;80;21059;-52
2022/03/28 03:21:38;;;;;;;15.78;3.40;;;;;;;0.17;39.80;101351.49;1756571;80;21102;-53
2022/03/28 03:24:06;;;;;;;8.03;3.52;;;;;;;0.20;39.96;101349.72;1753363;80;21024;-53
2022/03/28 03:26:32;;;;;;;9.33;3.33;;;;;;;0.21;40.06;101345.80;1750640;80;21126;-54
2022/03/28 03:28:59;;;;;;;9.35;3.45;;;;;;;0.25;40.02;101347.88;1761294;80;21131;-52
2022/03/28 03:31:26;;;;;;;12.13;3.17;;;;;;;0.29;39.80;101340.47;1753179;80;21150;-52
2022/03/28 03:33:54;;;;;;;9.28;2.72;;;;;;;0.32;39.99;101339.09;1751846;80;21609;-52
2022/03/28 03:36:21;;;;;;;9.85;3.45;;;;;;;0.33;39.99;101343.39;1758989;80;21047;-54
2022/03/28 03:38:48;;;;;;;8.65;2.95;;;;;;;0.34;40.05;101333.00;1759313;80;21593;-53
2022/03/28 03:41:14;;;;;;;9.45;2.85;;;;;;;0.37;40.05;101334.69;1742115;80;21428;-53
2022/03/28 03:43:41;;;;;;;9.30;3.42;;;;;;;0.42;39.97;101337.14;1751885;80;20980;-53
2022/03/28 03:46:08;;;;;;;6.60;2.50;;;;;;;0.45;40.44;101327.56;1756336;80;21004;-54
2022/03/28 03:48:36;;;;;;;13.50;3.08;;;;;;;0.50;40.02;101316.66;1752036;80;21075;-53
2022/03/28 03:51:03;;;;;;;10.08;3.55;;;;;;;0.53;40.00;101319.18;1742707;82;21015;-53
2022/03/28 03:53:30;;;;;;;10.05;2.95;;;;;;;0.58;39.93;101324.27;1750868;80;21150;-53
2022/03/28 03:55:59;;;;;;;6.10;2.52;;;;;;;0.63;39.90;101321.57;1770341;80;21079;-52
2022/03/28 03:58:26;;;;;;;12.18;3.35;;;;;;;0.64;39.82;101316.78;1760334;80;21114;-53
2022/03/28 04:00:52;;;;;;;8.65;3.02;;;;;;;0.64;39.84;101312.47;1760687;80;21063;-53
2022/03/28 04:03:19;;;;;;;6.20;2.62;;;;;;;0.63;39.82;101312.05;1750718;80;21072;-53
2022/03/28 04:05:47;;;;;;;6.25;2.10;;;;;;;0.65;39.84;101308.13;1755229;80;21069;-53
2022/03/28 04:08:15;;;;;;;8.45;2.20;;;;;;;0.65;40.04;101308.13;1757881;80;21126;-52
2022/03/28 04:10:45;;;;;;;7.45;3.20;;;;;;;0.68;40.11;101314.09;1747704;80;21059;-53
2022/03/28 04:13:12;;;;;;;6.45;2.45;;;;;;;0.71;40.11;101304.11;1749513;80;21144;-53
2022/03/28 04:15:38;;;;;;;7.62;2.42;;;;;;;0.79;40.00;101308.66;1749350;80;21078;-54
2022/03/28 04:18:06;;;;;;;10.00;2.67;;;;;;;0.82;39.78;101312.45;1747733;80;22017;-53
2022/03/28 04:20:34;;;;;;;8.33;2.50;;;;;;;0.87;39.91;101317.07;1758824;80;21064;-53
2022/03/28 04:23:01;;;;;;;7.50;2.85;;;;;;;0.87;39.73;101317.07;1698954;82;21134;-53
2022/03/28 04:25:28;;;;;;;9.13;2.00;;;;;;;0.89;39.78;101324.39;1750892;80;21064;-52
2022/03/28 04:27:56;;;;;;;8.98;2.42;;;;;;;0.93;39.79;101320.81;1750244;80;21117;-53
2022/03/28 04:30:23;;;;;;;6.62;2.20;;;;;;;0.98;39.90;101324.59;1751235;80;21086;-53
2022/03/28 04:32:50;;;;;;;8.58;2.22;;;;;;;1.03;39.81;101323.19;1749829;80;21059;-53
2022/03/28 04:35:19;;;;;;;10.70;2.83;;;;;;;1.08;39.77;101318.28;1751130;80;22318;-53
2022/03/28 04:37:45;;;;;;;11.18;2.20;;;;;;;1.13;39.88;101305.64;1750656;80;21597;-53
2022/03/28 04:40:15;;;;;;;5.55;2.37;;;;;;;1.17;39.56;101309.42;1750177;80;21062;-52
2022/03/28 04:42:43;;;;;;;8.08;2.85;;;;;;;1.16;39.67;101303.84;1749532;80;21543;-53
2022/03/28 04:45:11;;;;;;;8.05;2.47;;;;;;;1.14;39.78;101295.23;1748754;80;21530;-53
2022/03/28 04:47:38;;;;;;;6.20;2.40;;;;;;;1.19;39.82;101295.12;1751352;80;21090;-53
2022/03/28 04:50:08;;;;;;;7.85;2.58;;;;;;;1.20;39.74;101287.76;1749157;80;21169;-53
2022/03/28 04:52:35;;;;;;;8.33;2.37;;;;;;;1.24;39.64;101295.39;1753066;80;21071;-52
2022/03/28 04:55:03;;;;;;;6.80;2.37;;;;;;;1.26;39.68;101287.16;1752241;80;21083;-52
2022/03/28 04:57:30;;;;;;;7.05;2.37;;;;;;;1.31;39.57;101281.81;1755539;80;21083;-53
2022/03/28 04:59:58;;;;;;;4.78;2.02;;;;;;;1.34;39.67;101277.01;1753700;80;21526;-53
2022/03/28 05:02:24;;;;;;;8.43;2.05;;;;;;;1.41;39.59;101263.84;1702363;83;21013;-53
2022/03/28 05:04:52;;;;;;;5.92;2.60;;;;;;;1.47;39.64;101258.46;1752554;80;21130;-53
2022/03/28 05:07:26;;;;;;;5.83;2.00;;;;;;;1.57;39.52;101260.81;1755184;80;21133;-54
2022/03/28 05:09:53;;;;;;;6.60;2.35;;;;;;;1.61;39.50;101272.33;1756290;80;21094;-52
2022/03/28 05:12:20;;;;;;;8.03;2.40;;;;;;;1.66;39.40;101270.48;1747562;80;21129;-53
2022/03/28 05:14:48;;;;;;;6.47;2.55;;;;;;;1.69;39.33;101266.09;1758935;80;21064;-53
2022/03/28 05:17:15;;;;;;;5.40;1.80;;;;;;;1.73;39.17;101258.19;1748771;80;21071;-53
2022/03/28 05:19:43;;;;;;;7.12;2.50;;;;;;;1.76;39.19;101264.56;1748092;80;21188;-53
2022/03/28 05:22:11;;;;;;;6.25;1.90;;;;;;;1.80;39.16;101259.70;1742780;80;21094;-53
2022/03/28 05:24:38;;;;;;;5.58;1.75;;;;;;;1.85;39.19;101267.36;1746702;80;21126;-54
2022/03/28 05:27:05;;;;;;;6.75;1.77;;;;;;;1.90;39.01;101268.49;1768878;80;21004;-53
2022/03/28 05:29:32;;;;;;;8.73;2.25;;;;;;;1.92;39.00;101264.13;1761698;80;21055;-53
2022/03/28 05:31:59;;;;;;;4.40;1.40;;;;;;;1.99;39.12;101270.38;1767336;80;21205;-54
2022/03/28 05:34:28;;;;;;;4.22;1.60;;;;;;;2.02;39.28;101270.28;1735297;81;21149;-54
2022/03/28 05:36:55;;;;;;;9.28;1.80;;;;;;;2.10;38.92;101275.69;1749685;80;21050;-53
2022/03/28 05:39:22;;;;;;;17.15;2.30;;;;;;;2.13;38.88;101266.51;1749642;80;21090;-53
2022/03/28 05:41:49;;;;;;;6.28;1.60;;;;;;;2.17;38.82;101262.91;1752368;80;21050;-53
2022/03/28 05:44:16;;;;;;;5.97;1.62;;;;;;;2.20;38.93;101255.03;1750342;80;22479;-54
2022/03/28 05:46:43;;;;;;;8.15;2.00;;;;;;;2.28;38.78;101245.71;1753476;80;21043;-53
2022/03/28 05:49:10;;;;;;;6.72;1.85;;;;;;;2.31;38.73;101254.25;1757518;80;21078;-53
2022/03/28 05:51:38;;;;;;;7.25;1.70;;;;;;;2.36;38.31;101259.30;1748553;80;21038;-54
2022/03/28 05:54:04;;;;;;;5.97;1.40;;;;;;;2.37;38.52;101255.79;1752365;80;21071;-54
2022/03/28 05:56:31;;;;;;;9.75;1.57;;;;;;;2.41;38.58;101245.27;1746866;80;21968;-53
2022/03/28 05:58:58;;;;;;;7.12;2.12;;;;;;;2.48;38.49;101247.67;1749992;80;20990;-53
2022/03/28 06:01:26;;;;;;;5.97;2.02;;;;;;;2.57;38.45;101244.76;1752783;80;21031;-53
2022/03/28 06:03:53;;;;;;;5.78;1.77;;;;;;;2.62;38.23;101234.22;1751301;80;21050;-55
2022/03/28 06:06:19;;;;;;;6.85;2.00;;;;;;;2.67;38.13;101227.95;1761548;80;21059;-53
2022/03/28 06:08:48;;;;;;;6.72;2.10;;;;;;;2.72;37.92;101226.52;1768669;80;21146;-53
2022/03/28 06:11:14;;;;;;;9.03;2.75;;;;;;;2.75;37.71;101229.02;1768825;80;21570;-53
2022/03/28 06:13:42;;;;;;;6.30;2.12;;;;;;;2.76;37.94;101226.36;1744884;80;21051;-53
2022/03/28 06:16:10;;;;;;;4.83;1.95;;;;;;;2.85;38.12;101219.16;1777276;80;20988;-52
2022/03/28 06:18:38;;;;;;;7.50;1.67;;;;;;;2.92;37.76;101222.77;1763439;80;21070;-52
2022/03/28 06:21:07;;;;;;;4.65;1.50;;;;;;;2.97;37.79;101217.42;1758716;80;22068;-53
2022/03/28 06:23:35;;;;;;;4.47;1.52;;;;;;;3.03;37.75;101212.48;1749965;80;21082;-54
2022/03/28 06:26:03;;;;;;;8.00;2.40;;;;;;;3.08;37.58;101208.80;1749308;80;21045;-53
2022/03/28 06:28:29;;;;;;;4.62;1.32;;;;;;;3.12;37.31;101202.57;1754985;80;22665;-53
2022/03/28 06:30:57;;;;;;;6.75;2.02;;;;;;;3.17;37.61;101199.81;1750859;80;21149;-53
2022/03/28 06:33:24;;;;;;;4.78;1.52;;;;;;;3.25;37.30;101195.65;1755998;80;21268;-54
2022/03/28 06:35:56;;;;;;;5.80;1.62;;;;;;;3.30;37.20;101206.27;1751971;80;21062;-52
2022/03/28 06:38:23;;;;;;;5.08;1.30;;;;;;;3.36;37.05;101203.88;1748600;80;21009;-53
2022/03/28 06:40:50;;;;;;;4.72;1.47;;;;;;;3.39;36.92;101203.77;1750141;80;21109;-51
2022/03/28 06:43:16;;;;;;;5.25;1.42;;;;;;;3.43;36.82;101191.06;1750714;80;21089;-51
2022/03/28 06:45:44;;;;;;;12.23;1.80;;;;;;;3.48;36.64;101195.64;1753790;80;21083;-51
2022/03/28 06:48:11;;;;;;;5.33;1.57;;;;;;;3.52;36.72;101190.70;1750834;80;21573;-51
2022/03/28 06:50:39;;;;;;;4.67;1.60;;;;;;;3.58;36.85;101180.54;1753008;80;21038;-52
2022/03/28 06:53:06;;;;;;;5.45;1.80;;;;;;;3.65;36.68;101175.48;1748048;80;21095;-51
2022/03/28 06:55:32;;;;;;;5.47;1.52;;;;;;;3.76;36.48;101159.44;1755550;80;21066;-52
2022/03/28 06:58:00;;;;;;;5.70;1.75;;;;;;;3.88;36.05;101155.50;1749068;80;22077;-51
2022/03/28 07:00:27;;;;;;;6.42;1.67;;;;;;;3.96;36.07;101131.77;1760161;80;21083;-52
2022/03/28 07:02:53;;;;;;;6.22;1.72;;;;;;;4.05;35.96;101128.34;1755111;80;21027;-52
2022/03/28 07:05:20;;;;;;;4.92;1.50;;;;;;;4.17;35.75;101134.81;1758476;80;21107;-51
2022/03/28 07:07:49;;;;;;;3.20;1.17;;;;;;;4.32;35.94;101126.81;1758383;80;21491;-51
2022/03/28 07:10:18;;;;;;;4.60;1.60;;;;;;;4.42;35.04;101121.60;1754527;80;21202;-51
2022/03/28 07:12:45;;;;;;;5.17;1.47;;;;;;;4.51;34.78;101131.25;1754465;80;21050;-51
2022/03/28 07:15:12;;;;;;;4.90;1.32;;;;;;;4.55;34.48;101124.51;1765532;80;21050;-50
2022/03/28 07:17:56;;;;;;;4.28;1.45;;;;;;;4.60;34.36;101119.95;1772159;80;21043;-51
2022/03/28 07:20:27;;;;;;;5.95;1.50;;;;;;;4.64;34.17;101138.47;1754880;80;21519;-52
2022/03/28 07:22:55;;;;;;;6.47;1.50;;;;;;;4.67;34.28;101120.52;1758419;80;21248;-51
2022/03/28 07:25:22;;;;;;;6.97;1.25;;;;;;;4.75;33.77;101114.98;1745853;80;21555;-51
2022/03/28 07:27:49;;;;;;;3.52;1.00;;;;;;;4.84;33.54;101118.48;1749941;80;21054;-51
2022/03/28 07:30:17;;;;;;;4.33;1.17;;;;;;;4.90;33.20;101104.34;1761532;80;21106;-52
2022/03/28 07:32:44;;;;;;;4.65;0.98;;;;;;;4.94;33.27;101096.75;1753768;80;21090;-52
2022/03/28 07:35:12;;;;;;;6.55;1.37;;;;;;;5.02;33.47;101086.35;1751366;81;22084;-51
2022/03/28 07:37:41;;;;;;;4.62;1.20;;;;;;;5.11;33.13;101081.64;1752685;81;21000;-51
2022/03/28 07:40:11;;;;;;;5.87;1.20;;;;;;;5.20;32.91;101076.01;1756351;81;21098;-52
2022/03/28 07:42:40;;;;;;;4.17;1.20;;;;;;;5.27;32.64;101070.05;1745351;81;21094;-53
2022/03/28 07:45:09;;;;;;;5.10;1.05;;;;;;;5.32;31.79;101061.54;1748698;81;21081;-51
2022/03/28 07:47:36;;;;;;;3.02;0.90;;;;;;;5.37;31.55;101052.56;1746044;81;21223;-52
2022/03/28 07:50:04;;;;;;;2.60;0.82;;;;;;;5.45;31.17;101047.46;1753000;81;21017;-52
2022/03/28 07:52:31;;;;;;;4.42;0.80;;;;;;;5.49;31.12;101036.77;1742223;81;21042;-51
2022/03/28 07:55:00;;;;;;;3.85;1.02;;;;;;;5.58;31.14;101025.90;1746109;81;21102;-51
2022/03/28 07:57:28;;;;;;;4.08;0.98;;;;;;;5.68;30.75;101032.83;1748839;81;21545;-51
2022/03/28 07:59:54;;;;;;;2.60;0.88;;;;;;;5.76;30.47;101023.30;1758136;81;21287;-52
2022/03/28 08:02:21;;;;;;;3.47;0.88;;;;;;;5.85;30.16;101020.67;1742962;80;21058;-52
2022/03/28 08:04:47;;;;;;;2.67;0.78;;;;;;;5.91;30.33;101012.54;1748604;81;21102;-52
2022/03/28 08:07:14;;;;;;;3.47;0.90;;;;;;;6.00;29.96;100992.53;1747830;81;21105;-51
2022/03/28 08:09:42;;;;;;;3.05;0.95;;;;;;;6.10;29.85;101002.02;1749047;81;21061;-51
2022/03/28 08:12:10;;;;;;;3.70;1.17;;;;;;;6.19;29.68;101003.34;1747925;81;21137;-51
2022/03/28 08:14:37;;;;;;;8.80;1.27;;;;;;;6.24;29.24;100996.11;1748369;81;21118;-51
2022/03/28 08:17:04;;;;;;;4.30;1.05;;;;;;;6.30;29.23;100992.71;1750611;81;21633;-51
2022/03/28 08:19:32;;;;;;;6.20;0.90;;;;;;;6.37;29.21;100985.83;1747265;80;21690;-52
2022/03/28 08:22:00;;;;;;;3.17;0.70;;;;;;;6.40;28.80;100992.21;1746331;81;21055;-51
2022/03/28 08:24:27;;;;;;;7.25;1.65;;;;;;;6.42;29.05;100969.44;1746713;81;22575;-51
2022/03/28 08:26:55;;;;;;;3.60;1.05;;;;;;;6.44;29.39;100964.52;1749484;81;21068;-51
2022/03/28 08:29:22;;;;;;;5.00;1.30;;;;;;;6.49;29.34;100962.51;1746146;81;21130;-51
2022/03/28 08:31:49;;;;;;;4.25;0.90;;;;;;;6.58;29.41;100962.94;1748796;81;21110;-53
2022/03/28 08:34:18;;;;;;;4.22;1.35;;;;;;;6.69;29.49;100953.59;1743692;80;21125;-50
2022/03/28 08:36:45;;;;;;;5.15;0.88;;;;;;;6.85;29.90;100948.81;1699846;80;21151;-51
2022/03/28 08:39:12;;;;;;;2.22;0.70;;;;;;;7.00;28.82;100943.20;1739684;80;21121;-52
2022/03/28 08:41:38;;;;;;;6.28;1.00;;;;;;;7.17;28.68;100923.92;1743205;80;21130;-51
2022/03/28 08:44:06;;;;;;;4.22;0.95;;;;;;;7.31;28.69;100923.12;1713691;82;21062;-52
2022/03/28 08:46:34;;;;;;;3.98;0.70;;;;;;;7.43;28.52;100920.64;1750099;80;21062;-52
2022/03/28 08:49:04;;;;;;;4.28;0.80;;;;;;;7.58;28.53;100922.84;1747735;80;21155;-52
2022/03/28 08:51:30;;;;;;;5.08;0.80;;;;;;;7.74;28.40;100938.95;1741523;81;21066;-52
2022/03/28 08:53:57;;;;;;;4.35;1.10;;;;;;;7.91;28.62;100907.33;1748370;80;21007;-51
2022/03/28 08:56:23;;;;;;;3.45;0.88;;;;;;;8.08;28.56;100922.50;1746453;80;21051;-53
2022/03/28 08:58:50;;;;;;;10.98;1.42;;;;;;;8.21;28.09;100909.02;1743948;80;21133;-52
2022/03/28 09:01:21;;;;;;;4.45;1.07;;;;;;;8.30;28.20;100883.53;1742426;80;21164;-52
2022/03/28 09:03:49;;;;;;;3.52;1.00;;;;;;;8.43;28.48;100898.55;1741193;80;21472;-51
2022/03/28 09:06:37;;;;;;;7.45;0.98;;;;;;;8.57;28.32;100878.83;1753544;81;21089;-51
2022/03/28 09:09:16;;;;;;;4.58;0.78;;;;;;;8.67;27.95;100861.55;1750013;80;21032;-52
2022/03/28 09:11:48;;;;;;;2.50;0.68;;;;;;;8.77;28.01;100874.93;1743641;80;21066;-50
2022/03/28 09:14:29;;;;;;;6.33;1.27;;;;;;;8.86;27.99;100870.41;1736917;80;21072;-50
2022/03/28 09:17:08;;;;;;;7.47;1.40;;;;;;;8.94;27.98;100860.70;1734919;80;21889;-51
2022/03/28 09:19:51;;;;;;;5.00;1.20;;;;;;;9.02;27.90;100853.17;1745276;80;21585;-53
2022/03/28 09:22:23;;;;;;;4.45;1.35;;;;;;;9.10;27.81;100892.06;1741449;80;21529;-52
2022/03/28 09:24:54;;;;;;;5.58;1.37;;;;;;;9.17;28.06;100858.36;1743783;80;21462;-52
2022/03/28 09:27:24;;;;;;;5.08;1.20;;;;;;;9.22;28.52;100833.47;1735719;80;21248;-51
2022/03/28 09:30:05;;;;;;;5.12;1.40;;;;;;;9.36;27.85;100838.27;1738507;80;21062;-52
2022/03/28 09:32:39;;;;;;;15.00;2.02;;;;;;;9.46;28.11;100811.28;1732646;80;21140;-53
2022/03/28 09:35:22;;;;;;;3.67;1.07;;;;;;;9.57;27.99;100803.97;1721520;82;21082;-51
2022/03/28 09:38:01;;;;;;;5.00;1.45;;;;;;;9.70;28.10;100796.53;1713339;82;21493;-52
2022/03/28 09:40:49;;;;;;;5.47;1.47;;;;;;;9.86;28.13;100799.78;1722872;82;21066;-52
2022/03/28 09:43:21;;;;;;;6.42;1.90;;;;;;;10.02;28.02;100785.09;1719388;82;21071;-53
2022/03/28 09:45:54;;;;;;;5.60;1.70;;;;;;;10.17;27.37;100785.75;1717732;82;21483;-52
2022/03/28 09:48:24;;;;;;;7.00;1.85;;;;;;;10.23;27.63;100801.10;1722794;82;21118;-51
2022/03/28 09:50:58;;;;;;;5.87;1.77;;;;;;;10.31;27.31;100772.45;1722684;82;21074;-53
2022/03/28 09:53:31;;;;;;;5.35;1.45;;;;;;;10.36;27.26;100780.06;1724392;82;21337;-52
2022/03/28 09:56:00;;;;;;;4.97;1.98;;;;;;;10.39;27.36;100731.17;1721300;82;21119;-53
2022/03/28 09:58:49;;;;;;;5.75;1.57;;;;;;;10.46;27.29;100747.34;1721232;81;21161;-53
2022/03/28 10:01:25;;;;;;;6.40;2.00;;;;;;;10.50;27.40;100756.19;1727117;82;21090;-53
2022/03/28 10:03:55;;;;;;;5.93;2.00;;;;;;;10.55;27.15;100734.32;1722894;81;21143;-52
2022/03/28 10:06:22;;;;;;;4.95;1.65;;;;;;;10.64;27.34;100729.33;1726845;82;21236;-52
2022/03/28 10:08:49;;;;;;;6.55;1.82;;;;;;;10.72;27.24;100729.59;1724125;82;21693;-52
2022/03/28 10:11:16;;;;;;;6.58;2.12;;;;;;;10.81;27.56;100716.22;1703630;82;21128;-52
2022/03/28 10:13:44;;;;;;;5.97;2.05;;;;;;;10.94;27.30;100714.33;1733407;82;21098;-53
2022/03/28 10:16:11;;;;;;;10.23;2.50;;;;;;;11.06;26.78;100700.70;1734754;81;21983;-51
2022/03/28 10:18:42;;;;;;;4.80;1.45;;;;;;;11.14;26.45;100711.48;1721571;81;21052;-54
2022/03/28 10:21:29;;;;;;;4.50;1.67;;;;;;;11.22;26.90;100701.69;1716008;82;21674;-54
2022/03/28 10:24:07;;;;;;;6.17;1.50;;;;;;;11.26;26.52;100660.50;1726241;82;21431;-52
2022/03/28 10:26:38;;;;;;;5.90;1.32;;;;;;;11.28;26.38;100679.66;1720354;82;21088;-54
2022/03/28 10:29:17;;;;;;;5.95;1.90;;;;;;;11.31;26.36;100658.80;1727611;81;21065;-52
2022/03/28 10:32:02;;;;;;;4.83;1.55;;;;;;;11.34;26.37;100665.16;1719558;82;21778;-52
2022/03/28 10:35:00;;;;;;;6.80;1.42;;;;;;;11.40;26.69;100669.09;1752411;80;21132;-52
2022/03/28 10:37:40;;;;;;;4.42;1.32;;;;;;;11.51;26.37;100656.73;1749105;80;21054;-53
2022/03/28 10:40:24;;;;;;;7.90;1.75;;;;;;;11.62;26.39;100615.05;1748977;80;21107;-54
2022/03/28 10:43:13;;;;;;;4.45;1.42;;;;;;;11.77;26.73;100660.87;1753673;80;21118;-53
2022/03/28 10:45:57;;;;;;;6.97;1.55;;;;;;;11.90;26.03;100637.37;1751889;80;21800;-52
2022/03/28 10:48:55;;;;;;;4.78;1.72;;;;;;;11.94;25.92;100636.67;1700300;84;21068;-53
2022/03/28 10:51:29;;;;;;;6.35;1.87;;;;;;;12.00;25.90;100647.19;1751346;80;21620;-52
2022/03/28 10:54:05;;;;;;;6.92;1.98;;;;;;;12.11;25.89;100609.39;1749847;80;21047;-53
2022/03/28 10:56:37;;;;;;;10.50;1.70;;;;;;;12.15;25.47;100598.93;1744959;80;21111;-54
2022/03/28 10:59:09;;;;;;;7.58;2.80;;;;;;;12.22;25.54;100609.31;1747945;80;22261;-53
2022/03/28 11:01:41;;;;;;;6.92;1.90;;;;;;;12.25;25.26;100632.81;1748802;80;21074;-54
2022/03/28 11:04:19;;;;;;;5.80;1.45;;;;;;;12.26;25.46;100634.00;1747333;80;21078;-52
2022/03/28 11:07:04;;;;;;;8.85;2.00;;;;;;;12.29;25.21;100609.64;1759447;80;21058;-53
2022/03/28 11:09:48;;;;;;;4.70;1.55;;;;;;;12.33;25.28;100588.64;1749687;80;21043;-51
2022/03/28 11:12:34;;;;;;;7.37;2.15;;;;;;;12.35;25.35;100577.47;1760888;80;21298;-53
2022/03/28 11:15:15;;;;;;;6.42;2.15;;;;;;;12.44;25.54;100569.62;1744236;80;21515;-51
2022/03/28 11:18:04;;;;;;;4.70;1.40;;;;;;;12.56;25.22;100549.75;1741257;80;21112;-51
2022/03/28 11:20:47;;;;;;;7.10;1.55;;;;;;;12.68;25.60;100534.16;1751578;80;21024;-51
2022/03/28 11:23:18;;;;;;;5.58;2.15;;;;;;;12.85;25.39;100541.11;1750017;80;21592;-51
2022/03/28 11:25:57;;;;;;;5.50;1.32;;;;;;;12.93;25.20;100549.20;1748994;80;21276;-53
2022/03/28 11:28:27;;;;;;;4.37;1.00;;;;;;;13.02;25.02;100537.82;1752497;80;21189;-51
2022/03/28 11:31:09;;;;;;;8.73;1.95;;;;;;;13.07;25.00;100516.28;1749754;80;21110;-52
2022/03/28 11:33:41;;;;;;;6.90;1.92;;;;;;;13.13;24.77;100491.48;1759675;80;21136;-53
2022/03/28 11:36:10;;;;;;;6.65;1.70;;;;;;;13.22;24.66;100470.00;1747140;81;21700;-52
2022/03/28 11:38:49;;;;;;;8.33;1.50;;;;;;;13.27;24.73;100511.37;1747758;81;21495;-53
2022/03/28 11:41:16;;;;;;;5.25;1.72;;;;;;;13.26;25.02;100500.45;1751652;81;20976;-53
2022/03/28 11:43:45;;;;;;;6.37;1.80;;;;;;;13.29;24.62;100508.60;1741071;81;21496;-53
2022/03/28 11:46:30;;;;;;;6.45;1.42;;;;;;;13.33;24.60;100499.44;1747279;81;21534;-53